createdAt,value
2022-12-02T00:04:19.698Z,16.80
2022-12-02T00:09:32.258Z,17.80
2022-12-02T00:14:35.589Z,17.90
2022-12-02T00:19:37.428Z,17.00
2022-12-02T00:24:39.257Z,18.20
2022-12-02T00:29:41.067Z,19.10
2022-12-02T00:34:42.840Z,19.80
2022-12-02T00:39:44.641Z,15.90
2022-12-02T00:45:09.652Z,21.50
2022-12-02T00:50:12.408Z,17.40
2022-12-02T00:55:14.292Z,17.20
2022-12-02T01:00:16.715Z,18.70
2022-12-02T01:05:18.931Z,16.90
2022-12-02T01:10:20.770Z,16.90
2022-12-02T01:15:22.570Z,17.40
2022-12-02T01:20:24.362Z,15.60
2022-12-02T01:25:26.190Z,14.30
2022-12-02T01:30:28.279Z,15.40
2022-12-02T01:35:30.515Z,18.70
2022-12-02T01:40:33.509Z,17.40
2022-12-02T01:45:35.738Z,18.00
2022-12-02T01:50:37.848Z,11.80
2022-12-02T01:55:39.969Z,14.20
2022-12-02T02:00:41.912Z,15.40
2022-12-02T02:05:43.853Z,18.60
2022-12-02T02:10:46.979Z,17.80
2022-12-02T02:15:49.875Z,16.70
2022-12-02T02:20:54.063Z,18.00
2022-12-02T02:26:00.208Z,16.90
2022-12-02T02:31:06.619Z,15.60
2022-12-02T02:36:12.897Z,17.50
2022-12-02T02:41:15.051Z,18.00
2022-12-02T02:46:17.073Z,15.90
2022-12-02T02:51:19.489Z,21.30
2022-12-02T02:56:21.518Z,14.60
2022-12-02T03:01:29.358Z,18.40
2022-12-02T03:06:34.005Z,16.30
2022-12-02T03:11:38.515Z,15.90
2022-12-02T03:16:40.565Z,18.50
2022-12-02T03:21:42.761Z,16.30
2022-12-02T03:26:45.728Z,15.80
2022-12-02T03:31:47.580Z,10.80
2022-12-02T03:36:49.539Z,17.30
2022-12-02T03:41:51.585Z,11.70
2022-12-02T03:46:53.480Z,16.20
2022-12-02T03:51:55.605Z,12.10
2022-12-02T03:56:57.591Z,13.40
2022-12-02T04:01:59.667Z,9.40
2022-12-02T04:07:01.664Z,14.60
2022-12-02T04:12:03.581Z,12.60
2022-12-02T04:17:08.322Z,12.40
2022-12-02T04:22:10.485Z,12.30
2022-12-02T04:27:12.263Z,10.30
2022-12-02T04:32:14.104Z,11.10
2022-12-02T04:37:15.909Z,13.60
2022-12-02T04:42:17.752Z,15.40
2022-12-02T04:47:19.529Z,15.60
2022-12-02T04:52:21.351Z,17.30
2022-12-02T04:57:26.696Z,13.80
2022-12-02T05:02:32.879Z,15.20
2022-12-02T05:07:34.794Z,17.70
2022-12-02T05:12:36.768Z,13.40
2022-12-02T05:17:42.119Z,16.70
2022-12-02T05:22:44.407Z,17.50
2022-12-02T05:27:47.833Z,12.60
2022-12-02T05:32:49.703Z,15.70
2022-12-02T05:37:51.551Z,15.80
2022-12-02T05:42:53.427Z,13.30
2022-12-02T05:47:55.473Z,14.40
2022-12-02T05:52:57.259Z,14.80
2022-12-02T05:58:01.868Z,15.80
2022-12-02T06:03:08.681Z,14.80
2022-12-02T06:08:15.751Z,13.30
2022-12-02T06:13:23.469Z,13.70
2022-12-02T06:18:32.528Z,12.90
2022-12-02T06:23:34.367Z,10.90
2022-12-02T06:28:38.400Z,11.20
2022-12-02T06:33:41.559Z,14.90
2022-12-02T06:39:20.337Z,10.10
2022-12-02T06:44:43.653Z,10.30
2022-12-02T06:49:45.476Z,8.80
2022-12-02T06:54:47.886Z,9.80
2022-12-02T06:59:52.023Z,9.70
2022-12-02T07:04:55.343Z,9.80
2022-12-02T07:10:00.029Z,8.80
2022-12-02T07:15:20.563Z,10.40
2022-12-02T07:20:37.762Z,8.70
2022-12-02T07:25:44.242Z,10.80
2022-12-02T07:30:55.995Z,10.00
2022-12-02T07:35:57.892Z,12.70
2022-12-02T07:40:59.696Z,9.20
2022-12-02T07:46:02.094Z,9.70
2022-12-02T07:51:04.113Z,9.00
2022-12-02T07:56:06.363Z,9.60
2022-12-02T08:01:08.186Z,9.60
2022-12-02T08:06:09.971Z,10.20
2022-12-02T08:11:11.780Z,8.90
2022-12-02T08:16:13.672Z,12.30
2022-12-02T08:21:15.423Z,7.20
2022-12-02T08:26:17.202Z,7.60
2022-12-02T08:31:19.104Z,9.70
2022-12-02T08:36:21.795Z,10.90
2022-12-02T08:41:23.568Z,9.50
2022-12-02T08:46:26.582Z,7.20
2022-12-02T08:51:30.868Z,9.90
2022-12-02T08:56:32.730Z,8.70
2022-12-02T09:01:34.668Z,8.40
2022-12-02T09:06:36.724Z,9.10
2022-12-02T09:11:38.727Z,12.20
2022-12-02T09:16:40.615Z,11.10
2022-12-02T09:21:42.478Z,8.80
2022-12-02T09:26:44.289Z,10.50
2022-12-02T09:31:46.120Z,10.90
2022-12-02T09:36:48.108Z,11.50
2022-12-02T09:41:50.113Z,9.80
2022-12-02T09:46:52.136Z,8.60
2022-12-02T09:52:00.440Z,8.10
2022-12-02T09:57:02.299Z,9.00
2022-12-02T10:02:06.473Z,9.00
2022-12-02T10:07:10.075Z,10.40
2022-12-02T10:12:12.015Z,7.20
2022-12-02T10:17:19.487Z,9.00
2022-12-02T10:22:22.211Z,8.90
2022-12-02T10:27:24.098Z,7.80
2022-12-02T10:32:28.119Z,9.20
2022-12-02T10:37:34.192Z,7.00
2022-12-02T10:42:36.499Z,11.20
2022-12-02T10:47:38.433Z,9.20
2022-12-02T10:52:49.833Z,10.30
2022-12-02T10:57:51.760Z,9.10
2022-12-02T11:02:58.978Z,7.50
2022-12-02T11:08:06.764Z,11.10
2022-12-02T11:13:13.180Z,6.80
2022-12-02T11:18:30.632Z,9.10
2022-12-02T11:23:34.433Z,11.80
2022-12-02T11:29:06.204Z,10.50
2022-12-02T11:34:25.717Z,9.50
2022-12-02T11:39:42.820Z,12.00
2022-12-02T11:44:44.608Z,10.50
2022-12-02T11:49:46.402Z,10.60
2022-12-02T11:55:00.629Z,11.90
2022-12-02T12:00:02.764Z,12.60
2022-12-02T12:05:13.997Z,11.30
2022-12-02T12:10:32.372Z,13.90
2022-12-02T12:15:52.329Z,16.80
2022-12-02T12:20:54.076Z,17.20
2022-12-02T12:25:55.838Z,15.20
2022-12-02T12:31:00.303Z,12.50
2022-12-02T12:36:02.411Z,15.20
2022-12-02T12:41:04.224Z,16.60
2022-12-02T12:46:06.305Z,13.00
2022-12-02T12:51:09.489Z,12.70
2022-12-02T12:56:11.364Z,12.50
2022-12-02T13:01:13.451Z,14.10
2022-12-02T13:06:15.463Z,14.60
2022-12-02T13:11:17.303Z,16.60
2022-12-02T13:16:19.122Z,16.40
2022-12-02T13:21:21.000Z,13.70
2022-12-02T13:26:22.892Z,17.50
2022-12-02T13:31:24.845Z,14.70
2022-12-02T13:36:26.846Z,19.90
2022-12-02T13:41:28.612Z,20.20
2022-12-02T13:46:30.874Z,13.60
2022-12-02T13:51:32.754Z,19.90
2022-12-02T13:56:34.559Z,14.10
2022-12-02T14:01:36.397Z,13.30
2022-12-02T14:06:38.224Z,17.70
2022-12-02T14:11:40.706Z,18.20
2022-12-02T14:16:42.622Z,19.10
2022-12-02T14:21:44.406Z,14.40
2022-12-02T14:26:46.193Z,19.40
2022-12-02T14:31:48.072Z,20.80
2022-12-02T14:36:49.903Z,14.40
2022-12-02T14:41:51.844Z,16.90
2022-12-02T14:46:53.684Z,19.70
2022-12-02T14:51:55.508Z,16.70
2022-12-02T14:56:57.354Z,15.10
2022-12-02T15:01:59.424Z,17.10
2022-12-02T15:07:01.491Z,21.20
2022-12-02T15:12:03.448Z,15.90
2022-12-02T15:17:05.329Z,15.60
2022-12-02T15:22:07.241Z,16.70
2022-12-02T15:27:09.042Z,18.70
2022-12-02T15:32:15.785Z,20.50
2022-12-02T15:37:20.781Z,18.80
2022-12-02T15:42:22.732Z,20.00
2022-12-02T15:47:24.544Z,18.10
2022-12-02T15:52:26.602Z,20.20
2022-12-02T15:57:28.471Z,21.40
2022-12-02T16:02:30.323Z,21.40
2022-12-02T16:07:32.464Z,20.10
2022-12-02T16:12:34.502Z,18.30
2022-12-02T16:17:36.988Z,16.90
2022-12-02T16:22:38.828Z,20.30
2022-12-02T16:27:40.624Z,15.90
2022-12-02T16:32:42.434Z,21.70
2022-12-02T16:37:44.323Z,19.90
2022-12-02T16:42:46.643Z,20.10
2022-12-02T16:47:48.412Z,19.90
2022-12-02T16:52:50.229Z,20.20
2022-12-02T16:57:52.085Z,20.80
2022-12-02T17:02:53.923Z,19.60
2022-12-02T17:07:55.884Z,21.40
2022-12-02T17:12:57.731Z,21.30
2022-12-02T17:17:59.600Z,18.30
2022-12-02T17:23:01.445Z,19.10
2022-12-02T17:28:03.377Z,21.80
2022-12-02T17:33:05.267Z,18.60
2022-12-02T17:38:07.210Z,20.50
2022-12-02T17:43:09.167Z,17.60
2022-12-02T17:48:11.183Z,18.30
2022-12-02T17:53:13.061Z,20.10
2022-12-02T17:58:14.972Z,19.50
2022-12-02T18:03:16.879Z,25.30
2022-12-02T18:08:20.320Z,22.50
2022-12-02T18:13:22.144Z,20.90
2022-12-02T18:18:23.931Z,21.70
2022-12-02T18:23:27.815Z,46.00
2022-12-02T18:28:29.930Z,20.60
2022-12-02T18:33:31.845Z,21.60
2022-12-02T18:38:33.975Z,21.70
2022-12-02T18:43:36.711Z,25.90
2022-12-02T18:48:38.661Z,19.20
2022-12-02T18:53:40.514Z,24.40
2022-12-02T18:58:42.366Z,21.70
2022-12-02T19:03:44.213Z,37.20
2022-12-02T19:08:46.095Z,24.60
2022-12-02T19:13:47.922Z,29.10
2022-12-02T19:18:50.625Z,23.90
2022-12-02T19:23:52.437Z,21.50
2022-12-02T19:28:54.247Z,23.00
2022-12-02T19:33:56.023Z,23.30
2022-12-02T19:38:57.812Z,23.60
2022-12-02T19:44:03.680Z,25.20
2022-12-02T19:49:06.092Z,21.70
2022-12-02T19:54:07.927Z,25.60
2022-12-02T19:59:10.656Z,26.30
2022-12-02T20:04:39.553Z,23.60
2022-12-02T20:09:34.430Z,27.00
2022-12-02T20:14:36.447Z,26.30
2022-12-02T20:19:38.331Z,28.90
2022-12-02T20:24:40.212Z,23.60
2022-12-02T20:29:42.041Z,26.80
2022-12-02T20:34:44.499Z,27.10
2022-12-02T20:39:46.303Z,29.50
2022-12-02T20:44:52.342Z,27.70
2022-12-02T20:49:54.680Z,25.90
2022-12-02T20:54:56.593Z,20.50
2022-12-02T20:59:58.651Z,25.00
2022-12-02T21:05:00.466Z,27.20
2022-12-02T21:10:02.321Z,26.10
2022-12-02T21:15:04.658Z,21.90
2022-12-02T21:20:07.358Z,23.50
2022-12-02T21:25:09.262Z,30.00
2022-12-02T21:30:12.078Z,22.20
2022-12-02T21:35:14.168Z,29.80
2022-12-02T21:40:17.363Z,28.10
2022-12-02T21:45:19.295Z,30.00
2022-12-02T21:50:21.197Z,31.20
2022-12-02T21:55:22.978Z,27.40
2022-12-02T22:00:24.937Z,25.20
2022-12-02T22:05:26.732Z,25.80
2022-12-02T22:10:28.595Z,28.30
2022-12-02T22:15:30.398Z,28.10
2022-12-02T22:20:32.220Z,27.60
2022-12-02T22:25:34.060Z,28.90
2022-12-02T22:30:35.988Z,33.70
2022-12-02T22:35:38.583Z,26.50
2022-12-02T22:40:40.406Z,29.60
2022-12-02T22:45:42.248Z,26.30
2022-12-02T22:50:44.162Z,26.20
2022-12-02T22:55:46.653Z,26.30
2022-12-02T23:00:48.524Z,32.00
2022-12-02T23:05:50.418Z,29.10
2022-12-02T23:10:52.230Z,33.90
2022-12-02T23:15:54.089Z,31.40
2022-12-02T23:20:55.924Z,31.50
2022-12-02T23:25:57.741Z,36.00
2022-12-02T23:30:59.660Z,29.00
2022-12-02T23:36:01.470Z,35.50
2022-12-02T23:41:03.311Z,29.10
2022-12-02T23:46:05.400Z,27.20
2022-12-02T23:51:07.343Z,30.70
2022-12-02T23:56:09.151Z,30.20
